Grandview, OR

3:17 PM PDT on April 24, 2017 (GMT -0700)
3 Rivers North | | Change Station

Elev 2451 ft 44.58 °N, 121.35 °W | Updated 34 seconds ago

Overcast
Overcast
52.4 °F
Feels Like 52.4 °F
N
12.0
Wind Variable Wind from WSW
Gusts 0.0 mph

Today
High -- | Low -- °F
--% Chance of Precip.
Yesterday
High -- | Low -- °F
Precip. -- in
Pressure 29.71 in
Visibility 10.0 miles
Clouds Mostly Cloudy 5000 ft
Overcast 6000 ft
Dew Point 6 °F
Humidity 15%
Rainfall 0.91 in
Snow Depth Not available.
6:05 AM 8:01 PM
Waning Crescent, 4% visible
METAR KRDM 242156Z 02009KT 10SM BKN050 OVC060 10/02 A2971 RMK AO2 RAB43E56 SLP059 P0000 T01000017
Pressure 29.71 in
Visibility 10.0 miles
Clouds Mostly Cloudy 5000 ft
Overcast 6000 ft
Dew Point 6 °F
Humidity 15%
Rainfall 0.91 in
Snow Depth Not available.
6:05 AM 8:01 PM
Waning Crescent, 4% visible
METAR KRDM 242156Z 02009KT 10SM BKN050 OVC060 10/02 A2971 RMK AO2 RAB43E56 SLP059 P0000 T01000017

Get Severe Weather Alerts

Thanks for signing up!

Be on the lookout for a verification email in your inbox.

You'll start receiving the daily forecast at 8 AM.

×

10-Day Weather Forecast

Almanac

Astronomy

Apr. 24, 2017 Rise Set
Actual Time
Civil Twilight
Nautical Twilight
Astronomical Twilight
Moon
Length of Visible Light
Length of Day
Tomorrow will be .
, % of the Moon is Illuminated

Today's Extremes

State Highs State Lows

Community

WunderPhotos

WunderBlog® & News

Nearby

Air Quality

  Air Quality AQ Index Pollutant
Not available.

Snow Depth

Station Depth Elevation

Earthquake Activity

City Distance Mag. Time & Date
Minimum magnitude displayed is 2.5.

Coastal Water Temperatures

Place Temperature

Stations

Nearby Weather Stations

Station Location Temp. Windchill Dew Point Humidity Wind Precip. Elev Updated Type
                   

Watches & Warnings

There are currently no watches in effect.